Time;durP1;ratioP1;P1;durP2;ratioP2;P2;SDS_P1;SDS_P2;PMS_P1;PMS_P2;Temp;Humidity;BMP_temperature;BMP_pressure;BME280_temperature;BME280_humidity;BME280_pressure;Samples;Min_cycle;Max_cycle;Signal;HPM_P1;HPM_P2
2022/08/28 00:00:47;;;;;;;;;11.00;7.75;;;;;25.37;36.04;101208.44;5036243;28;45721;-55
2022/08/28 00:03:13;;;;;;;;;8.00;8.00;;;;;25.37;36.15;101208.44;5034726;28;45500;-53
2022/08/28 00:05:40;;;;;;;;;8.75;7.25;;;;;25.38;36.47;101214.59;5035077;28;45569;-57
2022/08/28 00:08:07;;;;;;;;;9.25;9.25;;;;;25.37;35.89;101219.03;5035211;28;46114;-63
2022/08/28 00:10:32;;;;;;;;;7.00;7.00;;;;;25.38;36.16;101209.28;5035026;28;45267;-59
2022/08/28 00:12:58;;;;;;;;;7.00;7.00;;;;;25.37;36.04;101204.94;5035237;28;45345;-57
2022/08/28 00:15:29;;;;;;;;;8.25;7.25;;;;;25.37;35.87;101208.44;5035256;28;45517;-59
2022/08/28 00:17:55;;;;;;;;;6.25;6.25;;;;;25.36;36.10;101198.78;5034426;28;45680;-63
2022/08/28 00:20:22;;;;;;;;;10.00;8.00;;;;;25.37;36.53;101207.59;5034211;28;45393;-54
2022/08/28 00:22:48;;;;;;;;;10.25;8.00;;;;;25.36;36.44;101197.94;5034585;28;45411;-65
2022/08/28 00:25:18;;;;;;;;;8.50;7.25;;;;;25.36;36.60;101201.44;5035240;28;45364;-59
2022/08/28 00:27:53;;;;;;;;;9.00;8.25;;;;;25.36;36.68;101200.59;5034421;28;45319;-53
2022/08/28 00:30:29;;;;;;;;;6.25;6.25;;;;;25.35;36.05;101202.41;5035721;28;45830;-60
2022/08/28 00:33:02;;;;;;;;;7.50;7.50;;;;;25.35;36.44;101204.19;5034382;28;45442;-52
2022/08/28 00:35:27;;;;;;;;;6.00;6.00;;;;;25.36;36.24;101211.22;5034909;28;45413;-59
2022/08/28 00:37:56;;;;;;;;;7.00;6.25;;;;;25.35;36.11;101206.84;5033360;28;46124;-56
2022/08/28 00:40:24;;;;;;;;;10.75;7.75;;;;;25.34;36.50;101206.00;5034434;28;45414;-54
2022/08/28 00:42:50;;;;;;;;;8.25;8.25;;;;;25.34;36.75;101205.16;5035031;28;45434;-54
2022/08/28 00:45:17;;;;;;;;;6.75;6.00;;;;;25.34;36.04;101207.81;5035888;28;45639;-63
2022/08/28 00:47:42;;;;;;;;;8.50;7.50;;;;;25.34;36.74;101213.13;5033634;28;46314;-54
2022/08/28 00:50:11;;;;;;;;;7.25;7.25;;;;;25.34;36.28;101202.50;5034351;28;45261;-59
2022/08/28 00:52:37;;;;;;;;;6.00;6.00;;;;;25.34;36.35;101205.16;5034404;28;45407;-64
2022/08/28 00:55:12;;;;;;;;;7.00;7.00;;;;;25.32;36.30;101214.06;5034841;28;45464;-55
2022/08/28 00:57:43;;;;;;;;;9.00;7.00;;;;;25.32;36.77;101211.41;5034096;28;47197;-58
2022/08/28 01:00:25;;;;;;;;;8.50;7.00;;;;;25.32;36.31;101216.72;5034045;28;45825;-57
2022/08/28 01:02:51;;;;;;;;;7.00;6.25;;;;;25.32;36.05;101216.72;5032800;28;45345;-53
2022/08/28 01:05:16;;;;;;;;;6.75;5.00;;;;;25.32;36.44;101218.53;5035390;28;45260;-57
2022/08/28 01:07:43;;;;;;;;;7.00;7.00;;;;;25.32;36.89;101215.88;5034127;28;45355;-59
2022/08/28 01:10:11;;;;;;;;;8.25;6.75;;;;;25.30;36.64;101212.47;5034388;28;45786;-64
2022/08/28 01:12:37;;;;;;;;;5.00;5.00;;;;;25.30;36.72;101209.84;5034222;28;45446;-59
2022/08/28 01:15:10;;;;;;;;;7.00;6.00;;;;;25.29;36.89;101216.09;5034543;28;45547;-62
2022/08/28 01:17:39;;;;;;;;;5.50;5.50;;;;;25.28;36.68;101214.38;5033161;28;46227;-55
2022/08/28 01:20:10;;;;;;;;;6.50;6.00;;;;;25.28;36.50;101214.38;5034249;28;45171;-57
2022/08/28 01:22:49;;;;;;;;;7.00;7.00;;;;;25.28;37.01;101220.56;5034128;28;45672;-57
2022/08/28 01:25:22;;;;;;;;;7.00;7.00;;;;;25.28;36.60;101220.56;5035398;28;45213;-61
2022/08/28 01:27:47;;;;;;;;;7.75;6.50;;;;;25.27;36.95;101216.22;5034891;28;46529;-55
2022/08/28 01:30:18;;;;;;;;;5.75;5.75;;;;;25.27;36.96;101213.56;5033367;28;45357;-60
2022/08/28 01:32:48;;;;;;;;;8.50;5.00;;;;;25.26;36.54;101209.19;5012510;28;45436;-54
2022/08/28 01:35:18;;;;;;;;;5.50;5.50;;;;;25.26;36.88;101203.03;5014335;28;45353;-55
2022/08/28 01:37:45;;;;;;;;;7.00;5.75;;;;;25.26;36.61;101201.25;5013529;28;45582;-52
2022/08/28 01:40:14;;;;;;;;;4.00;4.00;;;;;25.25;36.52;101198.69;5013961;28;45442;-54
2022/08/28 01:42:42;;;;;;;;;6.00;6.00;;;;;25.26;36.66;101200.38;5013894;28;45427;-52
2022/08/28 01:45:13;;;;;;;;;7.00;5.00;;;;;25.23;36.75;101198.78;5014222;28;45637;-58
2022/08/28 01:47:41;;;;;;;;;8.00;5.25;;;;;25.24;36.43;101197.84;5033121;28;46654;-65
2022/08/28 01:50:09;;;;;;;;;5.25;5.25;;;;;25.24;36.63;101189.88;5033409;28;45221;-63
2022/08/28 01:52:35;;;;;;;;;4.25;4.25;;;;;25.25;37.10;101198.69;5033575;28;45977;-64
2022/08/28 01:55:01;;;;;;;;;6.00;5.00;;;;;25.24;37.16;101187.22;5033947;28;45481;-58
2022/08/28 01:57:26;;;;;;;;;6.00;5.00;;;;;25.24;37.26;101181.94;5033064;28;45466;-56
2022/08/28 01:59:53;;;;;;;;;6.75;5.00;;;;;25.25;37.00;101188.94;5033041;28;45299;-58
2022/08/28 02:02:19;;;;;;;;;5.50;5.50;;;;;25.25;37.28;101185.41;5034121;28;45404;-56
2022/08/28 02:04:44;;;;;;;;;7.75;5.50;;;;;25.25;36.72;101194.25;5033457;28;45232;-59
2022/08/28 02:07:09;;;;;;;;;5.50;5.50;;;;;25.25;36.85;101190.72;5033273;28;46731;-57
2022/08/28 02:09:34;;;;;;;;;8.00;7.00;;;;;25.25;37.35;101194.25;5033186;28;48972;-57
2022/08/28 02:12:00;;;;;;;;;4.00;4.00;;;;;25.25;36.88;101199.53;5033470;28;45564;-61
2022/08/28 02:14:26;;;;;;;;;7.00;5.75;;;;;25.25;36.79;101188.94;5033313;28;45544;-60
2022/08/28 02:16:51;;;;;;;;;6.25;5.25;;;;;25.25;36.79;101194.25;5031210;28;46262;-56
2022/08/28 02:19:16;;;;;;;;;5.75;5.00;;;;;25.25;36.84;101196.03;5034093;28;45387;-57
2022/08/28 02:21:41;;;;;;;;;6.00;6.00;;;;;25.25;37.49;101199.53;5033108;28;45313;-56
2022/08/28 02:24:07;;;;;;;;;6.00;5.00;;;;;25.24;37.46;101200.50;5033426;28;45628;-54
2022/08/28 02:26:33;;;;;;;;;4.00;4.00;;;;;25.24;37.43;101191.69;5032670;28;46875;-51
2022/08/28 02:28:58;;;;;;;;;5.00;5.00;;;;;25.24;37.30;101197.84;5033269;28;45446;-53
2022/08/28 02:31:25;;;;;;;;;6.00;4.00;;;;;25.24;36.88;101205.81;5032240;28;45425;-61
2022/08/28 02:33:50;;;;;;;;;5.50;5.00;;;;;25.24;36.97;101203.16;5033696;28;45761;-54
2022/08/28 02:36:16;;;;;;;;;6.50;5.00;;;;;25.24;37.18;101197.84;5033808;28;45395;-54
2022/08/28 02:38:43;;;;;;;;;4.00;4.00;;;;;25.24;37.41;101192.53;5032769;28;45474;-59
2022/08/28 02:41:10;;;;;;;;;6.00;6.00;;;;;25.24;37.62;101202.31;5033105;28;45473;-56
2022/08/28 02:43:35;;;;;;;;;9.00;6.00;;;;;25.24;37.14;101200.50;5031234;28;45603;-58
2022/08/28 02:46:01;;;;;;;;;4.75;4.75;;;;;25.23;37.08;101198.78;5032128;28;45224;-59
2022/08/28 02:48:28;;;;;;;;;4.50;4.25;;;;;25.23;37.73;101201.44;5032618;28;45261;-57
2022/08/28 02:50:59;;;;;;;;;5.00;5.00;;;;;25.22;37.69;101205.06;5032984;28;45422;-56
2022/08/28 02:53:24;;;;;;;;;7.00;6.00;;;;;25.23;36.89;101196.16;5033001;28;45344;-56
2022/08/28 02:55:50;;;;;;;;;4.25;4.25;;;;;25.23;37.06;101200.63;5032725;28;46001;-56
2022/08/28 02:58:15;;;;;;;;;7.25;6.50;;;;;25.23;37.49;101200.63;5033648;28;45178;-57
2022/08/28 03:00:40;;;;;;;;;4.75;4.75;;;;;25.22;37.85;101196.25;5031677;28;45690;-54
2022/08/28 03:03:06;;;;;;;;;5.00;5.00;;;;;25.22;37.88;101198.91;5032744;28;45221;-53
2022/08/28 03:05:31;;;;;;;;;4.50;4.00;;;;;25.21;37.28;101190.09;5030949;28;45906;-51
2022/08/28 03:07:56;;;;;;;;;4.75;4.25;;;;;25.21;37.38;101192.75;5032495;28;45275;-53
2022/08/28 03:10:22;;;;;;;;;5.00;5.00;;;;;25.21;37.25;101186.59;5032407;28;45264;-61
2022/08/28 03:12:48;;;;;;;;;4.50;3.75;;;;;25.21;37.23;101191.91;5033647;28;45478;-56
2022/08/28 03:15:13;;;;;;;;;5.00;5.00;;;;;25.19;37.71;101181.38;5031663;28;45542;-57
2022/08/28 03:17:39;;;;;;;;;6.25;6.00;;;;;25.19;37.56;101184.03;5032112;28;45245;-57
2022/08/28 03:20:07;;;;;;;;;4.00;4.00;;;;;25.19;37.80;101178.72;5032510;28;45490;-58
2022/08/28 03:25:36;;;;;;;;;3.50;3.00;;;;;25.19;37.52;101189.34;4989882;28;45909;-58
2022/08/28 03:28:01;;;;;;;;;5.25;5.25;;;;;25.18;37.39;101187.69;4990325;28;45512;-53
2022/08/28 03:30:26;;;;;;;;;6.00;6.00;;;;;25.19;38.00;101189.34;5008474;28;45580;-53
2022/08/28 03:32:52;;;;;;;;;5.00;5.00;;;;;25.18;37.95;101187.69;5031264;28;45455;-56
2022/08/28 03:35:19;;;;;;;;;5.00;5.00;;;;;25.19;37.56;101191.16;5032881;28;46824;-54
2022/08/28 03:37:44;;;;;;;;;5.00;5.00;;;;;25.19;37.83;101177.91;5032293;28;45758;-55
2022/08/28 03:40:11;;;;;;;;;4.00;4.00;;;;;25.19;37.64;101191.16;5032280;28;46269;-54
2022/08/28 03:42:36;;;;;;;;;4.00;4.00;;;;;25.18;38.11;101187.69;5032195;28;45222;-62
2022/08/28 03:45:03;;;;;;;;;5.00;5.00;;;;;25.19;38.21;101181.38;5031431;28;45304;-63
2022/08/28 03:47:29;;;;;;;;;8.75;8.75;;;;;25.18;37.56;101182.38;5031679;28;45747;-61
2022/08/28 03:49:56;;;;;;;;;8.50;8.50;;;;;25.19;37.87;101189.34;5030692;28;45469;-58
2022/08/28 03:52:21;;;;;;;;;13.25;11.00;;;;;25.18;37.70;101179.72;5030554;28;45398;-57
2022/08/28 03:54:46;;;;;;;;;9.75;8.00;;;;;25.19;37.81;101188.50;5032657;28;46010;-60
2022/08/28 03:57:18;;;;;;;;;12.25;9.50;;;;;25.18;38.21;101187.69;5034621;28;45346;-58
2022/08/28 03:59:46;;;;;;;;;9.25;7.25;;;;;25.17;37.67;101178.84;5034528;28;45380;-66
2022/08/28 04:02:11;;;;;;;;;9.25;7.50;;;;;25.16;37.64;101186.94;5035363;28;45275;-58
2022/08/28 04:04:36;;;;;;;;;10.00;9.00;;;;;25.14;37.72;101192.31;5034977;28;46977;-58
2022/08/28 04:07:02;;;;;;;;;6.50;6.00;;;;;25.12;37.72;101190.75;5035033;28;45584;-59
2022/08/28 04:09:27;;;;;;;;;5.75;5.75;;;;;25.05;38.14;101192.97;5035172;28;45374;-59
2022/08/28 04:11:53;;;;;;;;;6.00;6.00;;;;;25.00;37.83;101192.44;5035370;28;45402;-57
2022/08/28 04:14:20;;;;;;;;;6.00;4.00;;;;;24.91;38.37;101185.97;5035100;28;46640;-57
2022/08/28 04:16:46;;;;;;;;;5.00;5.00;;;;;24.82;38.00;101191.91;5035848;28;45708;-57
2022/08/28 04:19:12;;;;;;;;;5.25;4.75;;;;;24.74;38.62;101188.94;5035313;28;45662;-58
2022/08/28 04:21:38;;;;;;;;;6.00;6.00;;;;;24.68;38.18;101191.03;5034865;28;45596;-60
2022/08/28 04:24:04;;;;;;;;;6.75;4.75;;;;;24.62;38.82;101191.44;5033498;28;46450;-59
2022/08/28 04:26:35;;;;;;;;;6.75;5.00;;;;;24.58;38.80;101189.94;5034586;28;45482;-59
2022/08/28 04:29:00;;;;;;;;;4.50;4.50;;;;;24.52;38.63;101195.66;5034413;28;45311;-57
2022/08/28 04:31:27;;;;;;;;;5.00;5.00;;;;;24.48;38.88;101194.16;5034769;28;45538;-58
2022/08/28 04:33:52;;;;;;;;;7.00;5.00;;;;;24.43;39.41;101190.94;5034615;28;47036;-58
2022/08/28 04:36:18;;;;;;;;;5.25;5.25;;;;;24.39;38.98;101195.59;5034213;28;46025;-59
2022/08/28 04:38:44;;;;;;;;;10.00;6.00;;;;;24.36;39.01;101191.38;5034344;28;45504;-57
2022/08/28 04:41:12;;;;;;;;;5.75;5.00;;;;;24.33;39.46;101193.38;5033584;28;45873;-58
2022/08/28 04:43:37;;;;;;;;;7.00;5.25;;;;;24.29;39.58;101190.09;5033563;28;45534;-57
2022/08/28 04:46:05;;;;;;;;;8.00;6.00;;;;;24.26;39.37;101194.69;5034543;28;45306;-59
2022/08/28 04:48:31;;;;;;;;;5.00;5.00;;;;;24.21;39.45;101195.88;5034271;28;45306;-57
2022/08/28 04:50:57;;;;;;;;;8.50;5.25;;;;;24.18;39.45;101205.81;5034465;28;45533;-58
2022/08/28 04:53:22;;;;;;;;;7.00;4.75;;;;;24.14;39.26;101206.97;5034241;28;45174;-57
2022/08/28 04:55:50;;;;;;;;;5.25;5.25;;;;;24.07;39.72;101202.09;5035240;28;45211;-58
2022/08/28 04:58:18;;;;;;;;;5.25;5.25;;;;;24.05;39.66;101219.84;5034707;28;45481;-57
2022/08/28 05:00:46;;;;;;;;;5.00;4.00;;;;;24.02;39.76;101206.81;5034325;28;45625;-59
2022/08/28 05:03:13;;;;;;;;;8.25;5.75;;;;;24.02;40.34;101213.91;5034260;28;45260;-57
2022/08/28 05:05:47;;;;;;;;;5.75;5.00;;;;;23.99;39.63;101222.88;5033917;28;45343;-57
2022/08/28 05:08:15;;;;;;;;;7.00;5.00;;;;;23.97;40.14;101214.22;5034377;28;45650;-58
2022/08/28 05:10:41;;;;;;;;;5.50;5.50;;;;;23.96;40.21;101219.59;5034197;28;45315;-57
2022/08/28 05:13:09;;;;;;;;;5.75;4.00;;;;;23.93;40.19;101221.44;5033274;28;45428;-58
2022/08/28 05:15:43;;;;;;;;;5.50;5.00;;;;;23.91;40.13;101217.19;5033979;28;45860;-59
2022/08/28 05:18:09;;;;;;;;;8.25;5.25;;;;;23.90;40.43;101220.78;5033965;28;45182;-58
2022/08/28 05:20:39;;;;;;;;;5.00;5.00;;;;;23.88;40.70;101228.84;5034153;28;45495;-60
2022/08/28 05:23:07;;;;;;;;;4.25;3.00;;;;;23.86;40.16;101227.25;5034104;28;45926;-57
2022/08/28 05:25:39;;;;;;;;;7.75;5.25;;;;;23.86;40.19;101227.25;5032192;28;45989;-56
2022/08/28 05:28:05;;;;;;;;;5.00;5.00;;;;;23.85;40.52;101236.13;5048901;28;45394;-57
2022/08/28 05:30:32;;;;;;;;;6.50;5.00;;;;;23.83;40.62;101241.50;5033840;28;45473;-57
2022/08/28 05:32:58;;;;;;;;;4.75;4.50;;;;;23.83;40.68;101240.69;5033628;28;46632;-56
2022/08/28 05:35:24;;;;;;;;;5.00;5.00;;;;;23.82;40.75;101238.97;5033508;28;45488;-57
2022/08/28 05:37:51;;;;;;;;;4.00;4.00;;;;;23.81;40.43;101245.22;5034178;28;45296;-57
2022/08/28 05:40:20;;;;;;;;;6.00;4.50;;;;;23.77;40.62;101242.75;5034760;28;45666;-57
2022/08/28 05:42:46;;;;;;;;;7.00;5.50;;;;;23.75;41.17;101249.09;5032599;28;48742;-57
2022/08/28 05:45:12;;;;;;;;;5.50;4.25;;;;;23.74;41.01;101245.59;5033549;28;45497;-57
2022/08/28 05:47:37;;;;;;;;;4.50;4.50;;;;;23.72;40.97;101247.50;5033391;28;45331;-58
2022/08/28 05:50:03;;;;;;;;;5.25;4.50;;;;;23.70;40.67;101246.72;5033640;28;45463;-59
2022/08/28 05:52:28;;;;;;;;;6.25;5.25;;;;;23.69;40.86;101249.50;5033065;28;46305;-57
2022/08/28 05:54:54;;;;;;;;;5.00;2.00;;;;;23.67;41.05;101246.91;5033313;28;45498;-55
2022/08/28 05:57:19;;;;;;;;;5.00;5.00;;;;;23.65;41.04;101253.25;5032061;28;45400;-42
2022/08/28 05:59:45;;;;;;;;;4.75;4.00;;;;;23.64;41.06;101255.06;5034764;28;45513;-44
2022/08/28 06:02:10;;;;;;;;;4.25;4.00;;;;;23.63;41.27;101253.38;5032976;28;57070;-45
2022/08/28 06:04:39;;;;;;;;;7.00;4.00;;;;;23.62;41.49;101254.31;5032842;28;52036;-48
2022/08/28 06:07:04;;;;;;;;;4.75;4.00;;;;;23.60;41.43;101243.81;5033519;28;45432;-50
2022/08/28 06:09:30;;;;;;;;;7.00;6.00;;;;;23.59;41.49;101249.19;5033424;28;45284;-55
2022/08/28 06:11:58;;;;;;;;;6.00;6.00;;;;;23.56;41.53;101244.09;5033160;28;45474;-53
2022/08/28 06:14:23;;;;;;;;;5.50;5.50;;;;;23.54;41.72;101248.63;5032234;28;45701;-55
2022/08/28 06:16:52;;;;;;;;;9.25;5.50;;;;;23.51;41.60;101254.13;5034195;28;45232;-59
2022/08/28 06:19:21;;;;;;;;;7.75;5.00;;;;;23.49;41.69;101254.19;5032289;28;45527;-59
2022/08/28 06:21:50;;;;;;;;;5.50;5.50;;;;;23.48;41.76;101260.47;5033876;28;46496;-53
2022/08/28 06:24:16;;;;;;;;;4.00;4.00;;;;;23.45;42.21;101256.19;5034010;28;45359;-56
2022/08/28 06:26:42;;;;;;;;;6.00;6.00;;;;;23.45;41.64;101256.19;5031767;28;45340;-53
2022/08/28 06:29:10;;;;;;;;;5.00;5.00;;;;;23.46;41.77;101262.34;5032780;28;45244;-43
2022/08/28 06:31:36;;;;;;;;;8.00;5.00;;;;;23.45;41.87;101261.47;5032663;28;45394;-45
2022/08/28 06:34:01;;;;;;;;;4.50;4.00;;;;;23.46;41.91;101257.06;5031652;28;45447;-43
2022/08/28 06:36:30;;;;;;;;;6.50;4.50;;;;;23.43;42.04;101265.16;5032742;28;45378;-47
2022/08/28 06:38:59;;;;;;;;;5.50;4.00;;;;;23.42;41.78;101261.69;5033195;28;45355;-47
2022/08/28 06:41:26;;;;;;;;;5.75;5.00;;;;;23.41;42.19;101265.28;5032619;28;46384;-45
2022/08/28 06:43:52;;;;;;;;;5.50;5.00;;;;;23.38;42.42;101270.75;5032116;28;45885;-42
2022/08/28 06:46:18;;;;;;;;;5.00;5.00;;;;;23.37;42.42;101260.25;5033668;28;45353;-46
2022/08/28 06:48:43;;;;;;;;;5.25;5.25;;;;;23.37;42.44;101263.75;5032955;28;45163;-48
2022/08/28 06:51:10;;;;;;;;;5.00;4.50;;;;;23.37;42.47;101263.75;5031066;28;46853;-43
2022/08/28 06:53:38;;;;;;;;;6.50;5.25;;;;;23.35;42.24;101268.28;5032464;28;45932;-42
2022/08/28 06:56:07;;;;;;;;;5.50;5.50;;;;;23.34;42.58;101271.03;5032797;28;45406;-47
2022/08/28 06:58:34;;;;;;;;;5.75;4.50;;;;;23.32;42.52;101260.50;5032191;28;45657;-43
2022/08/28 07:01:07;;;;;;;;;6.50;6.00;;;;;23.32;42.63;101268.44;5032400;28;46026;-45
2022/08/28 07:03:33;;;;;;;;;6.50;6.00;;;;;23.31;42.36;101272.91;5032099;28;45393;-42
2022/08/28 07:06:00;;;;;;;;;7.00;6.00;;;;;23.32;42.68;101268.44;5032585;28;45443;-43
2022/08/28 07:08:27;;;;;;;;;8.50;8.00;;;;;23.29;42.41;101264.19;5032678;28;45277;-43
2022/08/28 07:10:53;;;;;;;;;6.50;5.00;;;;;23.25;42.72;101262.72;5032446;28;46102;-48
2022/08/28 07:13:20;;;;;;;;;5.75;5.75;;;;;23.23;42.78;101263.72;5032173;28;45398;-45
2022/08/28 07:15:45;;;;;;;;;9.75;6.75;;;;;23.22;42.71;101264.66;5033532;28;45309;-44
2022/08/28 07:18:11;;;;;;;;;5.25;5.25;;;;;23.23;42.97;101269.00;5032566;28;45335;-42
2022/08/28 07:20:36;;;;;;;;;7.00;7.00;;;;;23.22;42.79;101276.09;5032057;28;45322;-47
2022/08/28 07:23:03;;;;;;;;;5.75;5.50;;;;;23.22;43.08;101278.75;5032201;28;45467;-43
2022/08/28 07:25:28;;;;;;;;;6.00;6.00;;;;;23.22;42.84;101275.25;5032172;28;45411;-42
2022/08/28 07:27:54;;;;;;;;;6.00;5.00;;;;;23.22;43.36;101284.03;5030668;28;45454;-42
2022/08/28 07:30:20;;;;;;;;;5.50;5.50;;;;;23.22;42.78;101277.88;5034303;28;46237;-48
2022/08/28 07:32:48;;;;;;;;;6.00;6.00;;;;;23.21;42.97;101276.19;5036487;28;45398;-45
2022/08/28 07:35:17;;;;;;;;;9.75;5.50;;;;;23.21;43.19;101273.53;5035872;28;45461;-43
2022/08/28 07:37:43;;;;;;;;;7.25;5.25;;;;;23.22;43.31;101277.88;5035854;28;45547;-49
2022/08/28 07:40:10;;;;;;;;;6.25;5.75;;;;;23.23;43.25;101275.16;5035561;28;45276;-44
2022/08/28 07:45:41;;;;;;;;;6.00;5.00;;;;;23.26;43.53;101284.69;5013017;28;45323;-45
2022/08/28 07:48:07;;;;;;;;;5.00;4.25;;;;;23.26;43.68;101279.41;5013609;28;45690;-47
2022/08/28 07:50:34;;;;;;;;;6.50;4.50;;;;;23.28;43.58;101282.81;5022926;28;46267;-44
2022/08/28 07:52:59;;;;;;;;;8.75;5.50;;;;;23.28;43.61;101278.38;5035288;28;46041;-44
2022/08/28 07:55:26;;;;;;;;;4.25;4.25;;;;;23.28;43.14;101286.31;5035379;28;45616;-48
2022/08/28 07:57:52;;;;;;;;;7.00;6.00;;;;;23.29;43.31;101290.66;5034730;28;45347;-46
2022/08/28 08:00:18;;;;;;;;;8.00;6.25;;;;;23.30;43.48;101291.53;5035949;28;47264;-42
2022/08/28 08:02:43;;;;;;;;;6.25;6.25;;;;;23.31;43.31;101294.06;5034775;28;45255;-49
2022/08/28 08:05:09;;;;;;;;;6.50;5.00;;;;;23.31;43.58;101291.41;5034740;28;56445;-47
2022/08/28 08:07:38;;;;;;;;;6.00;6.00;;;;;23.31;43.38;101287.94;5035171;28;45485;-48
2022/08/28 08:10:05;;;;;;;;;7.75;6.75;;;;;23.32;43.57;101284.31;5035001;28;45613;-46
2022/08/28 08:12:32;;;;;;;;;6.00;6.00;;;;;23.32;43.38;101281.66;5034017;28;45857;-45
2022/08/28 08:14:58;;;;;;;;;10.00;6.25;;;;;23.33;43.62;101280.72;5035049;28;45394;-47
2022/08/28 08:17:23;;;;;;;;;8.00;7.00;;;;;23.33;43.38;101282.53;5034933;28;45445;-43
2022/08/28 08:19:48;;;;;;;;;8.00;6.50;;;;;23.35;43.89;101284.13;5034340;28;46591;-49
2022/08/28 08:22:14;;;;;;;;;6.25;6.25;;;;;23.37;43.63;101287.56;5033542;28;45981;-46
2022/08/28 08:24:40;;;;;;;;;6.75;6.00;;;;;23.39;43.28;101283.03;5034830;28;45178;-57
2022/08/28 08:27:05;;;;;;;;;9.50;6.00;;;;;23.43;43.47;101289.81;5032927;28;45658;-59
2022/08/28 08:29:35;;;;;;;;;7.00;5.25;;;;;23.46;43.63;101288.78;5034476;28;45925;-52
2022/08/28 08:32:04;;;;;;;;;5.75;4.00;;;;;23.49;43.42;101283.28;5034617;28;45304;-44
2022/08/28 08:34:37;;;;;;;;;6.50;5.75;;;;;23.50;43.37;101292.09;5034843;28;45262;-46
2022/08/28 08:37:04;;;;;;;;;6.00;6.00;;;;;23.53;43.59;101297.22;5033806;28;45401;-51
2022/08/28 08:39:30;;;;;;;;;6.00;6.00;;;;;23.53;43.66;101289.28;5034275;28;47037;-47
2022/08/28 08:41:58;;;;;;;;;6.50;6.00;;;;;23.55;43.77;101296.16;5033256;28;45189;-43
2022/08/28 08:44:37;;;;;;;;;6.25;6.25;;;;;23.57;43.52;101294.28;5034406;28;45427;-48
2022/08/28 08:47:39;;;;;;;;;7.75;6.50;;;;;23.60;43.43;101301.19;5034664;28;45324;-43
2022/08/28 08:50:12;;;;;;;;;8.50;6.50;;;;;23.60;43.53;101294.06;5033213;28;46102;-45
2022/08/28 08:53:19;;;;;;;;;6.25;6.25;;;;;23.63;43.62;101295.69;5034365;28;45216;-46
2022/08/28 08:55:49;;;;;;;;;5.75;5.75;;;;;23.63;43.46;101293.91;4966356;28;45800;-42
2022/08/28 08:58:38;;;;;;;;;7.00;7.00;;;;;23.66;43.47;101289.38;5015086;28;45331;-44
2022/08/28 09:01:22;;;;;;;;;9.00;5.25;;;;;23.67;43.71;101283.97;5014151;28;47191;-43
2022/08/28 09:03:54;;;;;;;;;7.75;7.00;;;;;23.69;43.30;101295.31;5015236;28;45415;-48
2022/08/28 09:06:38;;;;;;;;;8.25;7.00;;;;;23.71;43.25;101290.78;5014723;28;45266;-43
2022/08/28 09:09:16;;;;;;;;;5.50;5.25;;;;;23.72;43.23;101281.03;5014739;28;45329;-43
2022/08/28 09:11:54;;;;;;;;;14.00;9.75;;;;;23.74;42.95;101280.00;5027319;28;46400;-43
2022/08/28 09:14:35;;;;;;;;;7.75;7.00;;;;;23.76;43.19;101282.56;5034603;28;45762;-42
2022/08/28 09:17:01;;;;;;;;;6.25;6.25;;;;;23.76;43.19;101282.56;5034248;28;45182;-44
2022/08/28 09:19:27;;;;;;;;;7.75;5.25;;;;;23.78;43.27;101270.91;5033989;28;45296;-45
2022/08/28 09:21:52;;;;;;;;;7.00;6.75;;;;;23.82;43.24;101270.72;5033981;28;45325;-48
2022/08/28 09:24:22;;;;;;;;;7.25;6.25;;;;;23.84;43.52;101279.44;5034961;28;45330;-42
2022/08/28 09:26:54;;;;;;;;;7.25;7.00;;;;;23.85;43.38;101279.31;5034229;28;45520;-48
2022/08/28 09:29:28;;;;;;;;;6.00;5.75;;;;;23.89;42.82;101278.19;5033706;28;45804;-43
2022/08/28 09:31:55;;;;;;;;;8.25;7.75;;;;;23.93;43.08;101284.16;5033739;28;46508;-45
2022/08/28 09:34:25;;;;;;;;;10.25;7.25;;;;;23.97;43.04;101279.53;5033908;28;45838;-43
2022/08/28 09:36:52;;;;;;;;;13.50;11.25;;;;;24.02;43.61;101286.25;5033809;28;45383;-45
2022/08/28 09:39:31;;;;;;;;;11.75;10.00;;;;;24.06;43.48;101284.25;5034894;28;45256;-48
2022/08/28 09:45:12;;;;;;;;;10.00;10.00;;;;;24.13;43.49;101282.94;5033335;28;45462;-42
2022/08/28 09:47:47;;;;;;;;;12.50;11.75;;;;;24.18;43.48;101266.75;5033352;28;45395;-46
2022/08/28 09:50:15;;;;;;;;;15.75;13.75;;;;;24.21;43.73;101277.13;5033776;28;45483;-45
2022/08/28 09:52:40;;;;;;;;;15.75;15.75;;;;;24.23;43.71;101273.44;5033170;28;45292;-43
2022/08/28 09:55:11;;;;;;;;;13.25;13.25;;;;;24.26;43.71;101266.22;5032237;28;45327;-45
2022/08/28 09:57:40;;;;;;;;;11.50;11.50;;;;;24.29;43.22;101258.94;5033513;28;45284;-43
2022/08/28 10:00:06;;;;;;;;;16.75;15.00;;;;;24.31;43.37;101258.84;5033879;28;45389;-44
2022/08/28 10:02:46;;;;;;;;;14.50;11.25;;;;;24.34;43.73;101256.00;5033295;28;45391;-44
2022/08/28 10:05:17;;;;;;;;;13.00;11.25;;;;;24.35;43.20;101263.84;5033365;28;45477;-46
2022/08/28 10:07:48;;;;;;;;;12.75;11.00;;;;;24.38;43.04;101252.19;5033250;28;45220;-43
2022/08/28 10:10:27;;;;;;;;;13.25;10.75;;;;;24.41;43.04;101262.59;5033044;28;45617;-43
2022/08/28 10:13:00;;;;;;;;;12.00;10.75;;;;;24.45;42.99;101249.97;5033168;28;47316;-44
2022/08/28 10:15:41;;;;;;;;;10.00;9.75;;;;;24.47;42.82;101253.38;5033036;28;45288;-54
2022/08/28 10:18:30;;;;;;;;;8.75;8.25;;;;;24.50;42.69;101256.69;5033457;28;45364;-46
2022/08/28 10:21:20;;;;;;;;;8.25;8.25;;;;;24.54;42.61;101258.19;5033787;28;45309;-43
2022/08/28 10:24:00;;;;;;;;;10.00;10.00;;;;;24.56;42.87;101260.72;5033836;28;45410;-44
2022/08/28 10:26:40;;;;;;;;;10.75;8.50;;;;;24.57;42.79;101257.13;5032268;28;45478;-45
2022/08/28 10:29:17;;;;;;;;;8.00;8.00;;;;;24.55;42.89;101259.03;5033513;28;45732;-50
2022/08/28 10:31:54;;;;;;;;;9.00;7.75;;;;;24.56;42.41;101250.13;5033382;28;45340;-51
2022/08/28 10:34:31;;;;;;;;;9.50;8.50;;;;;24.58;42.48;101258.00;5034082;28;46255;-46
2022/08/28 10:37:41;;;;;;;;;10.50;9.00;;;;;24.58;42.53;101250.03;5032934;28;45270;-50
2022/08/28 10:40:15;;;;;;;;;9.50;8.75;;;;;24.58;42.42;101250.03;5032485;28;45332;-53
2022/08/28 10:42:59;;;;;;;;;11.00;9.50;;;;;24.60;42.25;101248.13;5033178;28;45742;-57
2022/08/28 10:45:29;;;;;;;;;8.25;7.25;;;;;24.61;42.57;101252.47;5032822;28;47110;-52
2022/08/28 10:47:59;;;;;;;;;11.25;8.50;;;;;24.61;42.09;101258.63;5033080;28;45656;-54
2022/08/28 10:50:28;;;;;;;;;8.00;8.00;;;;;24.63;42.36;101251.44;5032868;28;45311;-53
2022/08/28 10:53:07;;;;;;;;;7.75;7.00;;;;;24.63;42.24;101259.38;5033336;28;45558;-49
2022/08/28 10:55:46;;;;;;;;;10.50;8.75;;;;;24.64;42.38;101250.47;5031899;28;46201;-46
2022/08/28 10:58:14;;;;;;;;;9.00;6.75;;;;;24.65;42.62;101259.28;5032904;28;45489;-46
2022/08/28 11:00:44;;;;;;;;;8.75;8.00;;;;;24.65;42.10;101254.81;5032890;28;45404;-42
2022/08/28 11:03:14;;;;;;;;;7.25;6.75;;;;;24.66;42.49;101259.16;5033150;28;45789;-42
2022/08/28 11:06:00;;;;;;;;;9.00;8.00;;;;;24.66;42.22;101253.88;5036797;28;45342;-42
2022/08/28 11:08:25;;;;;;;;;7.75;7.75;;;;;24.68;41.96;101253.78;5039157;28;45410;-42
2022/08/28 11:10:53;;;;;;;;;8.00;8.00;;;;;24.68;42.07;101254.66;5038678;28;45377;-43
2022/08/28 11:13:57;;;;;;;;;8.00;8.00;;;;;24.69;42.39;101250.22;5040484;28;45504;-42
2022/08/28 11:16:28;;;;;;;;;6.75;6.75;;;;;24.70;42.05;101246.59;5039065;28;46373;-45
2022/08/28 11:19:08;;;;;;;;;8.00;7.25;;;;;24.70;42.10;101244.78;5039256;28;45311;-42
2022/08/28 11:21:51;;;;;;;;;7.25;7.25;;;;;24.71;42.48;101245.63;5039283;28;45418;-41
2022/08/28 11:24:44;;;;;;;;;7.00;7.00;;;;;24.72;41.95;101241.19;5039790;28;45220;-42
2022/08/28 11:27:10;;;;;;;;;8.00;7.25;;;;;24.73;42.19;101245.56;5039301;28;45269;-42
2022/08/28 11:29:54;;;;;;;;;8.33;8.00;;;;;24.74;41.77;101237.47;5039036;28;45335;-44
2022/08/28 11:32:50;;;;;;;;;8.50;7.50;;;;;24.75;41.80;101235.69;5039699;28;45342;-47
2022/08/28 11:35:39;;;;;;;;;8.00;8.00;;;;;24.75;42.18;101235.69;5040252;28;45265;-49
2022/08/28 11:38:06;;;;;;;;;5.75;5.75;;;;;24.75;42.21;101246.31;5037782;28;48435;-49
2022/08/28 11:40:31;;;;;;;;;8.00;8.00;;;;;24.76;42.43;101234.72;5038038;28;45890;-47
2022/08/28 11:43:14;;;;;;;;;7.67;7.67;;;;;24.77;42.35;101241.72;5039193;28;45406;-42